createdAt,value
2018-01-27T00:00:33.737Z,986.06
2018-01-27T00:01:33.702Z,986.10
2018-01-27T00:02:33.681Z,986.11
2018-01-27T00:03:33.646Z,986.14
2018-01-27T00:04:33.796Z,986.15
2018-01-27T00:05:34.559Z,986.15
2018-01-27T00:06:33.577Z,986.15
2018-01-27T00:07:33.551Z,986.16
2018-01-27T00:08:33.569Z,986.17
2018-01-27T00:09:33.595Z,986.19
2018-01-27T00:10:33.477Z,986.17
2018-01-27T00:11:33.470Z,986.24
2018-01-27T00:12:33.434Z,986.21
2018-01-27T00:13:33.399Z,986.22
2018-01-27T00:14:33.365Z,986.19
2018-01-27T00:15:33.452Z,986.18
2018-01-27T00:16:33.313Z,986.19
2018-01-27T00:17:33.283Z,986.15
2018-01-27T00:18:33.268Z,986.20
2018-01-27T00:19:33.273Z,986.16
2018-01-27T00:20:33.314Z,986.16
2018-01-27T00:21:33.192Z,986.18
2018-01-27T00:22:33.225Z,986.19
2018-01-27T00:23:33.123Z,986.18
2018-01-27T00:24:33.141Z,986.19
2018-01-27T00:25:33.713Z,986.15
2018-01-27T00:26:33.115Z,986.16
2018-01-27T00:27:33.615Z,986.16
2018-01-27T00:28:33.063Z,986.16
2018-01-27T00:29:32.986Z,986.17
2018-01-27T00:30:33.002Z,986.18
2018-01-27T00:31:33.564Z,986.17
2018-01-27T00:32:32.936Z,986.17
2018-01-27T00:33:32.858Z,986.16
2018-01-27T00:34:32.865Z,986.19
2018-01-27T00:35:32.856Z,986.18
2018-01-27T00:36:32.984Z,986.20
2018-01-27T00:37:32.868Z,986.16
2018-01-27T00:38:32.760Z,986.12
2018-01-27T00:39:32.769Z,986.11
2018-01-27T00:40:32.679Z,986.13
2018-01-27T00:41:33.362Z,986.14
2018-01-27T00:42:33.185Z,986.14
2018-01-27T00:43:32.622Z,986.17
2018-01-27T00:44:32.619Z,986.21
2018-01-27T00:45:32.553Z,986.21
2018-01-27T00:46:33.244Z,986.25
2018-01-27T00:47:32.510Z,986.27
2018-01-27T00:48:32.460Z,986.26
2018-01-27T00:49:32.462Z,986.26
2018-01-27T00:50:32.414Z,986.27
2018-01-27T00:51:32.949Z,986.27
2018-01-27T00:52:32.988Z,986.31
2018-01-27T00:53:32.867Z,986.34
2018-01-27T00:54:32.324Z,986.29
2018-01-27T00:55:32.282Z,986.30
2018-01-27T00:56:32.849Z,986.33
2018-01-27T00:57:32.759Z,986.35
2018-01-27T00:58:32.305Z,986.36
2018-01-27T00:59:32.720Z,986.39
2018-01-27T01:00:32.172Z,986.40
2018-01-27T01:01:32.136Z,986.36
2018-01-27T01:02:32.114Z,986.35
2018-01-27T01:03:32.136Z,986.36
2018-01-27T01:04:32.145Z,986.36
2018-01-27T01:05:32.023Z,986.34
2018-01-27T01:06:32.463Z,986.37
2018-01-27T01:07:31.992Z,986.38
2018-01-27T01:08:31.937Z,986.38
2018-01-27T01:09:32.046Z,986.42
2018-01-27T01:10:31.893Z,986.40
2018-01-27T01:11:31.865Z,986.46
2018-01-27T01:12:32.363Z,986.50
2018-01-27T01:13:32.745Z,986.47
2018-01-27T01:14:31.887Z,986.47
2018-01-27T01:15:31.747Z,986.48
2018-01-27T01:16:31.738Z,986.50
2018-01-27T01:17:31.707Z,986.55
2018-01-27T01:18:31.685Z,986.55
2018-01-27T01:19:31.738Z,986.60
2018-01-27T01:20:31.625Z,986.61
2018-01-27T01:21:31.587Z,986.64
2018-01-27T01:22:31.776Z,986.65
2018-01-27T01:23:32.126Z,986.70
2018-01-27T01:24:31.837Z,986.70
2018-01-27T01:25:32.039Z,986.72
2018-01-27T01:26:31.481Z,986.73
2018-01-27T01:27:31.500Z,986.69
2018-01-27T01:28:31.413Z,986.70
2018-01-27T01:29:31.947Z,986.68
2018-01-27T01:30:32.412Z,986.69
2018-01-27T01:31:31.846Z,986.73
2018-01-27T01:32:31.971Z,986.76
2018-01-27T01:33:31.818Z,986.77
2018-01-27T01:34:31.251Z,986.76
2018-01-27T01:35:31.324Z,986.80
2018-01-27T01:36:31.787Z,986.83
2018-01-27T01:37:31.155Z,986.85
2018-01-27T01:38:31.138Z,986.86
2018-01-27T01:39:31.166Z,986.84
2018-01-27T01:40:31.150Z,986.86
2018-01-27T01:41:31.154Z,986.85
2018-01-27T01:42:31.031Z,986.84
2018-01-27T01:43:31.556Z,986.84
2018-01-27T01:44:31.565Z,986.84
2018-01-27T01:45:32.142Z,986.83
2018-01-27T01:46:31.297Z,986.85
2018-01-27T01:47:31.291Z,986.89
2018-01-27T01:48:31.523Z,986.87
2018-01-27T01:49:30.938Z,986.87
2018-01-27T01:50:30.853Z,986.92
2018-01-27T01:51:30.885Z,986.89
2018-01-27T01:52:31.164Z,986.95
2018-01-27T01:53:31.194Z,986.97
2018-01-27T01:54:31.004Z,986.96
2018-01-27T01:55:30.745Z,986.99
2018-01-27T01:56:30.750Z,986.97
2018-01-27T01:57:30.687Z,987.01
2018-01-27T01:58:30.644Z,987.01
2018-01-27T01:59:31.155Z,987.07
2018-01-27T02:00:31.094Z,987.11
2018-01-27T02:01:30.577Z,987.13
2018-01-27T02:02:30.569Z,987.11
2018-01-27T02:03:30.455Z,987.12
2018-01-27T02:04:30.636Z,987.13
2018-01-27T02:05:30.386Z,987.12
2018-01-27T02:06:30.934Z,987.12
2018-01-27T02:07:30.976Z,987.16
2018-01-27T02:08:30.311Z,987.14
2018-01-27T02:09:30.792Z,987.12
2018-01-27T02:10:31.248Z,987.13
2018-01-27T02:11:30.729Z,987.16
2018-01-27T02:12:30.239Z,987.16
2018-01-27T02:13:30.278Z,987.18
2018-01-27T02:14:30.688Z,987.18
2018-01-27T02:15:30.658Z,987.21
2018-01-27T02:16:30.092Z,987.23
2018-01-27T02:17:30.311Z,987.19
2018-01-27T02:18:30.163Z,987.16
2018-01-27T02:19:30.004Z,987.20
2018-01-27T02:20:30.510Z,987.19
2018-01-27T02:21:29.980Z,987.22
2018-01-27T02:22:30.450Z,987.22
2018-01-27T02:23:30.002Z,987.21
2018-01-27T02:24:30.392Z,987.22
2018-01-27T02:25:29.860Z,987.22
2018-01-27T02:26:31.017Z,987.25
2018-01-27T02:27:29.785Z,987.26
2018-01-27T02:28:29.915Z,987.29
2018-01-27T02:29:29.724Z,987.27
2018-01-27T02:30:30.264Z,987.27
2018-01-27T02:31:30.213Z,987.30
2018-01-27T02:32:30.171Z,987.30
2018-01-27T02:33:29.715Z,987.28
2018-01-27T02:34:29.638Z,987.31
2018-01-27T02:35:29.566Z,987.33
2018-01-27T02:36:29.527Z,987.35
2018-01-27T02:37:30.037Z,987.36
2018-01-27T02:38:30.014Z,987.35
2018-01-27T02:39:30.084Z,987.36
2018-01-27T02:40:29.959Z,987.35
2018-01-27T02:41:29.896Z,987.36
2018-01-27T02:42:29.407Z,987.35
2018-01-27T02:43:29.406Z,987.34
2018-01-27T02:44:29.406Z,987.36
2018-01-27T02:45:29.856Z,987.38
2018-01-27T02:46:29.269Z,987.37
2018-01-27T02:47:29.997Z,987.37
2018-01-27T02:48:29.241Z,987.32
2018-01-27T02:49:29.192Z,987.41
2018-01-27T02:50:29.252Z,987.42
2018-01-27T02:51:29.131Z,987.44
2018-01-27T02:52:29.097Z,987.48
2018-01-27T02:53:29.590Z,987.46
2018-01-27T02:54:29.061Z,987.51
2018-01-27T02:55:29.669Z,987.51
2018-01-27T02:56:29.508Z,987.51
2018-01-27T02:57:29.009Z,987.50
2018-01-27T02:58:28.939Z,987.50
2018-01-27T02:59:29.129Z,987.45
2018-01-27T03:00:29.563Z,987.47
2018-01-27T03:01:29.549Z,987.49
2018-01-27T03:02:29.550Z,987.48
2018-01-27T03:03:28.809Z,987.49
2018-01-27T03:04:28.811Z,987.47
2018-01-27T03:05:29.349Z,987.52
2018-01-27T03:06:29.352Z,987.54
2018-01-27T03:07:28.720Z,987.60
2018-01-27T03:08:28.761Z,987.58
2018-01-27T03:09:29.232Z,987.59
2018-01-27T03:10:28.702Z,987.60
2018-01-27T03:11:29.113Z,987.59
2018-01-27T03:12:29.082Z,987.56
2018-01-27T03:13:28.593Z,987.59
2018-01-27T03:14:28.507Z,987.55
2018-01-27T03:15:28.546Z,987.57
2018-01-27T03:16:28.573Z,987.59
2018-01-27T03:17:28.934Z,987.56
2018-01-27T03:18:28.382Z,987.58
2018-01-27T03:19:28.355Z,987.59
2018-01-27T03:20:28.852Z,987.56
2018-01-27T03:21:28.825Z,987.57
2018-01-27T03:22:29.183Z,987.55
2018-01-27T03:23:28.243Z,987.53
2018-01-27T03:24:28.745Z,987.49
2018-01-27T03:25:28.168Z,987.47
2018-01-27T03:26:28.380Z,987.48
2018-01-27T03:27:28.816Z,987.51
2018-01-27T03:28:28.666Z,987.49
2018-01-27T03:29:28.089Z,987.54
2018-01-27T03:30:28.119Z,987.53
2018-01-27T03:31:28.114Z,987.54
2018-01-27T03:32:28.083Z,987.55
2018-01-27T03:33:28.955Z,987.49
2018-01-27T03:34:27.941Z,987.47
2018-01-27T03:35:28.538Z,987.48
2018-01-27T03:36:28.427Z,987.48
2018-01-27T03:37:28.948Z,987.42
2018-01-27T03:38:27.815Z,987.43
2018-01-27T03:39:27.799Z,987.41
2018-01-27T03:40:27.818Z,987.42
2018-01-27T03:41:28.327Z,987.42
2018-01-27T03:42:28.024Z,987.38
2018-01-27T03:43:28.209Z,987.40
2018-01-27T03:44:27.661Z,987.39
2018-01-27T03:45:28.207Z,987.41
2018-01-27T03:46:27.663Z,987.39
2018-01-27T03:47:28.219Z,987.36
2018-01-27T03:48:27.620Z,987.43
2018-01-27T03:49:28.062Z,987.42
2018-01-27T03:50:27.563Z,987.46
2018-01-27T03:51:27.461Z,987.42
2018-01-27T03:52:28.140Z,987.45
2018-01-27T03:53:27.643Z,987.41
2018-01-27T03:54:27.453Z,987.47
2018-01-27T03:55:27.343Z,987.44
2018-01-27T03:56:27.342Z,987.42
2018-01-27T03:57:27.295Z,987.40
2018-01-27T03:58:27.392Z,987.42
2018-01-27T03:59:27.452Z,987.37
2018-01-27T04:00:27.216Z,987.36
2018-01-27T04:01:27.393Z,987.39
2018-01-27T04:02:27.687Z,987.36
2018-01-27T04:03:27.285Z,987.39
2018-01-27T04:04:27.117Z,987.35
2018-01-27T04:05:27.266Z,987.33
2018-01-27T04:06:27.178Z,987.33
2018-01-27T04:07:27.349Z,987.35
2018-01-27T04:08:28.406Z,987.37
2018-01-27T04:09:27.355Z,987.35
2018-01-27T04:10:27.155Z,987.32
2018-01-27T04:11:27.121Z,987.31
2018-01-27T04:12:27.022Z,987.36
2018-01-27T04:13:26.964Z,987.32
2018-01-27T04:14:28.271Z,987.34
2018-01-27T04:15:27.946Z,987.35
2018-01-27T04:16:27.802Z,987.33
2018-01-27T04:17:27.053Z,987.32
2018-01-27T04:18:27.294Z,987.30
2018-01-27T04:19:26.756Z,987.31
2018-01-27T04:20:27.346Z,987.30
2018-01-27T04:21:27.546Z,987.29
2018-01-27T04:22:27.322Z,987.31
2018-01-27T04:23:27.155Z,987.26
2018-01-27T04:24:26.544Z,987.25
2018-01-27T04:25:27.244Z,987.25
2018-01-27T04:26:26.613Z,987.29
2018-01-27T04:27:26.496Z,987.26
2018-01-27T04:28:26.412Z,987.27
2018-01-27T04:29:26.424Z,987.23
2018-01-27T04:30:26.344Z,987.22
2018-01-27T04:31:26.370Z,987.19
2018-01-27T04:32:26.463Z,987.16
2018-01-27T04:33:26.295Z,987.16
2018-01-27T04:34:26.271Z,987.12
2018-01-27T04:35:26.234Z,987.12
2018-01-27T04:36:26.184Z,987.16
2018-01-27T04:37:26.279Z,987.15
2018-01-27T04:38:26.153Z,987.13
2018-01-27T04:39:26.094Z,987.14
2018-01-27T04:40:26.082Z,987.13
2018-01-27T04:41:26.061Z,987.13
2018-01-27T04:42:26.115Z,987.13
2018-01-27T04:43:26.116Z,987.10
2018-01-27T04:44:25.976Z,987.08
2018-01-27T04:45:25.937Z,987.08
2018-01-27T04:46:25.906Z,987.09
2018-01-27T04:47:26.179Z,987.08
2018-01-27T04:48:25.958Z,987.08
2018-01-27T04:49:25.819Z,987.09
2018-01-27T04:50:25.798Z,987.10
2018-01-27T04:51:25.799Z,987.08
2018-01-27T04:52:25.828Z,987.05
2018-01-27T04:53:25.770Z,987.08
2018-01-27T04:54:25.749Z,987.09
2018-01-27T04:55:25.657Z,987.12
2018-01-27T04:56:25.640Z,987.14
2018-01-27T04:57:25.648Z,987.07
2018-01-27T04:58:25.671Z,987.11
2018-01-27T04:59:25.530Z,987.14
2018-01-27T05:00:25.510Z,987.14
2018-01-27T05:01:25.483Z,987.17
2018-01-27T05:02:25.460Z,987.12
2018-01-27T05:03:25.421Z,987.07
2018-01-27T05:04:25.493Z,987.12
2018-01-27T05:05:25.367Z,987.06
2018-01-27T05:06:25.347Z,987.04
2018-01-27T05:07:25.319Z,987.03
2018-01-27T05:08:25.292Z,987.05
2018-01-27T05:09:25.455Z,987.04
2018-01-27T05:10:25.242Z,987.04
2018-01-27T05:11:25.210Z,987.10
2018-01-27T05:12:25.164Z,987.07
2018-01-27T05:13:25.141Z,987.01
2018-01-27T05:14:25.164Z,987.02
2018-01-27T05:15:25.094Z,987.00
2018-01-27T05:16:25.055Z,987.01
2018-01-27T05:17:25.024Z,987.01
2018-01-27T05:18:25.012Z,986.99
2018-01-27T05:19:25.087Z,986.96
2018-01-27T05:20:24.973Z,986.96
2018-01-27T05:21:24.991Z,986.90
2018-01-27T05:22:24.968Z,986.92
2018-01-27T05:23:24.871Z,986.90
2018-01-27T05:24:25.005Z,986.87
2018-01-27T05:25:24.812Z,986.88
2018-01-27T05:26:24.847Z,986.86
2018-01-27T05:27:24.747Z,986.87
2018-01-27T05:28:24.792Z,986.88
2018-01-27T05:29:24.736Z,986.82
2018-01-27T05:30:24.757Z,986.82
2018-01-27T05:31:24.657Z,986.81
2018-01-27T05:32:24.788Z,986.82
2018-01-27T05:33:24.578Z,986.78
2018-01-27T05:34:24.588Z,986.77
2018-01-27T05:35:24.518Z,986.76
2018-01-27T05:36:24.707Z,986.75
2018-01-27T05:37:24.458Z,986.76
2018-01-27T05:38:24.528Z,986.73
2018-01-27T05:39:24.415Z,986.72
2018-01-27T05:40:24.429Z,986.73
2018-01-27T05:41:24.376Z,986.69
2018-01-27T05:42:24.429Z,986.63
2018-01-27T05:43:24.301Z,986.67
2018-01-27T05:44:24.261Z,986.65
2018-01-27T05:45:24.237Z,986.64
2018-01-27T05:46:24.289Z,986.61
2018-01-27T05:47:24.297Z,986.60
2018-01-27T05:48:24.150Z,986.59
2018-01-27T05:49:24.121Z,986.62
2018-01-27T05:50:24.092Z,986.59
2018-01-27T05:51:24.070Z,986.59
2018-01-27T05:52:24.102Z,986.59
2018-01-27T05:53:24.012Z,986.54
2018-01-27T05:54:23.988Z,986.58
2018-01-27T05:55:23.971Z,986.62
2018-01-27T05:56:23.923Z,986.63
2018-01-27T05:57:24.003Z,986.56
2018-01-27T05:58:23.874Z,986.56
2018-01-27T05:59:23.851Z,986.54
2018-01-27T06:00:23.817Z,986.52
2018-01-27T06:01:23.794Z,986.51
2018-01-27T06:02:23.755Z,986.51
2018-01-27T06:03:23.844Z,986.52
2018-01-27T06:04:23.704Z,986.52
2018-01-27T06:05:23.674Z,986.51
2018-01-27T06:06:23.694Z,986.53
2018-01-27T06:07:23.656Z,986.54
2018-01-27T06:08:23.688Z,986.48
2018-01-27T06:09:23.642Z,986.45
2018-01-27T06:10:23.612Z,986.44
2018-01-27T06:11:23.515Z,986.45
2018-01-27T06:12:23.553Z,986.45
2018-01-27T06:13:23.454Z,986.43
2018-01-27T06:14:23.527Z,986.43
2018-01-27T06:15:23.447Z,986.43
2018-01-27T06:16:23.377Z,986.46
2018-01-27T06:17:23.337Z,986.43
2018-01-27T06:18:23.307Z,986.42
2018-01-27T06:19:23.277Z,986.47
2018-01-27T06:20:23.357Z,986.44
2018-01-27T06:21:23.237Z,986.40
2018-01-27T06:22:23.209Z,986.40
2018-01-27T06:23:23.170Z,986.36
2018-01-27T06:24:23.139Z,986.41
2018-01-27T06:25:23.216Z,986.41
2018-01-27T06:26:23.099Z,986.39
2018-01-27T06:27:23.207Z,986.37
2018-01-27T06:28:23.039Z,986.41
2018-01-27T06:29:23.009Z,986.37
2018-01-27T06:30:23.071Z,986.38
2018-01-27T06:31:22.940Z,986.36
2018-01-27T06:32:22.928Z,986.41
2018-01-27T06:33:22.899Z,986.34
2018-01-27T06:34:22.862Z,986.30
2018-01-27T06:35:22.832Z,986.31
2018-01-27T06:36:22.970Z,986.35
2018-01-27T06:37:22.771Z,986.31
2018-01-27T06:38:22.753Z,986.30
2018-01-27T06:39:22.833Z,986.25
2018-01-27T06:40:22.710Z,986.25
2018-01-27T06:41:22.662Z,986.25
2018-01-27T06:42:22.733Z,986.27
2018-01-27T06:43:22.614Z,986.29
2018-01-27T06:44:22.583Z,986.27
2018-01-27T06:45:22.564Z,986.22
2018-01-27T06:46:22.534Z,986.27
2018-01-27T06:47:22.603Z,986.26
2018-01-27T06:48:22.515Z,986.29
2018-01-27T06:49:22.436Z,986.26
2018-01-27T06:50:22.414Z,986.27
2018-01-27T06:51:22.395Z,986.25
2018-01-27T06:52:22.355Z,986.28
2018-01-27T06:53:22.425Z,986.27
2018-01-27T06:54:22.312Z,986.23
2018-01-27T06:55:22.277Z,986.23
2018-01-27T06:56:22.297Z,986.21
2018-01-27T06:57:22.227Z,986.24
2018-01-27T06:58:22.353Z,986.25
2018-01-27T06:59:22.156Z,986.22
2018-01-27T07:00:22.139Z,986.20
2018-01-27T07:01:22.108Z,986.24
2018-01-27T07:02:22.088Z,986.19
2018-01-27T07:03:22.159Z,986.20
2018-01-27T07:04:22.028Z,986.15
2018-01-27T07:05:21.989Z,986.17
2018-01-27T07:06:21.970Z,986.15
2018-01-27T07:07:21.939Z,986.20
2018-01-27T07:08:21.958Z,986.15
2018-01-27T07:09:22.018Z,986.13
2018-01-27T07:10:21.851Z,986.13
2018-01-27T07:11:21.829Z,986.11
2018-01-27T07:12:21.810Z,986.12
2018-01-27T07:13:21.771Z,986.10
2018-01-27T07:14:21.843Z,986.16
2018-01-27T07:15:21.714Z,986.10
2018-01-27T07:16:21.691Z,986.12
2018-01-27T07:17:21.663Z,986.10
2018-01-27T07:18:21.633Z,986.07
2018-01-27T07:19:21.711Z,986.06
2018-01-27T07:20:21.573Z,986.08
2018-01-27T07:21:21.542Z,986.02
2018-01-27T07:22:21.535Z,986.00
2018-01-27T07:23:21.511Z,985.97
2018-01-27T07:24:21.523Z,985.96
2018-01-27T07:25:21.434Z,985.92
2018-01-27T07:26:21.404Z,985.90
2018-01-27T07:27:21.382Z,985.93
2018-01-27T07:28:21.355Z,985.91
2018-01-27T07:29:21.412Z,985.90
2018-01-27T07:30:21.411Z,985.87
2018-01-27T07:31:21.282Z,985.86
2018-01-27T07:32:21.245Z,985.87
2018-01-27T07:33:21.222Z,985.84
2018-01-27T07:34:21.191Z,985.79
2018-01-27T07:35:21.382Z,985.79
2018-01-27T07:36:21.127Z,985.77
2018-01-27T07:37:21.108Z,985.75
2018-01-27T07:38:21.077Z,985.69
2018-01-27T07:39:21.047Z,985.71
2018-01-27T07:40:21.144Z,985.67
2018-01-27T07:41:21.089Z,985.65
2018-01-27T07:42:20.976Z,985.66
2018-01-27T07:43:20.939Z,985.67
2018-01-27T07:44:20.908Z,985.70
2018-01-27T07:45:20.878Z,985.74
2018-01-27T07:46:20.948Z,985.70
2018-01-27T07:47:20.842Z,985.70
2018-01-27T07:48:20.808Z,985.68
2018-01-27T07:49:20.768Z,985.68
2018-01-27T07:50:20.740Z,985.67
2018-01-27T07:51:20.827Z,985.70
2018-01-27T07:52:20.681Z,985.63
2018-01-27T07:53:20.661Z,985.59
2018-01-27T07:54:20.631Z,985.56
2018-01-27T07:55:20.621Z,985.54
2018-01-27T07:56:20.732Z,985.51
2018-01-27T07:57:20.540Z,985.49
2018-01-27T07:58:20.540Z,985.47
2018-01-27T07:59:20.491Z,985.49
2018-01-27T08:00:20.462Z,985.55
2018-01-27T08:01:20.434Z,985.56
2018-01-27T08:02:20.554Z,985.54
2018-01-27T08:03:20.383Z,985.50
2018-01-27T08:04:20.372Z,985.51
2018-01-27T08:05:20.332Z,985.52
2018-01-27T08:06:20.317Z,985.51
2018-01-27T08:07:20.264Z,985.53
2018-01-27T08:08:20.344Z,985.52
2018-01-27T08:09:20.214Z,985.51
2018-01-27T08:10:20.267Z,985.50
2018-01-27T08:11:20.161Z,985.53
2018-01-27T08:12:20.125Z,985.51
2018-01-27T08:13:20.103Z,985.49
2018-01-27T08:14:20.179Z,985.50
2018-01-27T08:15:20.120Z,985.51
2018-01-27T08:16:20.017Z,985.52
2018-01-27T08:17:19.997Z,985.50
2018-01-27T08:18:19.973Z,985.50
2018-01-27T08:19:20.027Z,985.47
2018-01-27T08:20:19.908Z,985.48
2018-01-27T08:21:19.878Z,985.47
2018-01-27T08:22:19.849Z,985.45
2018-01-27T08:23:19.820Z,985.41
2018-01-27T08:24:20.011Z,985.40
2018-01-27T08:25:19.776Z,985.39
2018-01-27T08:26:19.738Z,985.41
2018-01-27T08:27:19.731Z,985.42
2018-01-27T08:28:19.684Z,985.42
2018-01-27T08:29:19.748Z,985.37
2018-01-27T08:30:19.680Z,985.42
2018-01-27T08:31:19.610Z,985.39
2018-01-27T08:32:19.670Z,985.40
2018-01-27T08:33:19.542Z,985.36
2018-01-27T08:34:19.621Z,985.36
2018-01-27T08:35:19.498Z,985.35
2018-01-27T08:36:19.462Z,985.36
2018-01-27T08:37:19.429Z,985.35
2018-01-27T08:38:19.451Z,985.34
2018-01-27T08:39:19.378Z,985.37
2018-01-27T08:40:19.448Z,985.37
2018-01-27T08:41:19.337Z,985.36
2018-01-27T08:42:19.304Z,985.38
2018-01-27T08:43:19.262Z,985.33
2018-01-27T08:44:19.255Z,985.36
2018-01-27T08:45:19.305Z,985.33
2018-01-27T08:46:19.186Z,985.32
2018-01-27T08:47:19.143Z,985.36
2018-01-27T08:48:19.130Z,985.36
2018-01-27T08:49:19.097Z,985.38
2018-01-27T08:50:19.121Z,985.39
2018-01-27T08:51:19.143Z,985.41
2018-01-27T08:52:19.034Z,985.40
2018-01-27T08:53:18.990Z,985.40
2018-01-27T08:54:18.956Z,985.41
2018-01-27T08:55:18.933Z,985.40
2018-01-27T08:56:19.025Z,985.38
2018-01-27T08:57:18.875Z,985.37
2018-01-27T08:58:18.954Z,985.37
2018-01-27T08:59:18.821Z,985.40
2018-01-27T09:00:18.795Z,985.38
2018-01-27T09:01:18.872Z,985.39
2018-01-27T09:02:18.742Z,985.40
2018-01-27T09:03:18.708Z,985.41
2018-01-27T09:04:18.676Z,985.36
2018-01-27T09:05:18.651Z,985.39
2018-01-27T09:06:18.770Z,985.41
2018-01-27T09:07:18.616Z,985.41
2018-01-27T09:08:18.616Z,985.40
2018-01-27T09:09:18.556Z,985.39
2018-01-27T09:10:18.508Z,985.41
2018-01-27T09:11:18.504Z,985.40
2018-01-27T09:12:18.553Z,985.38
2018-01-27T09:13:18.453Z,985.35
2018-01-27T09:14:18.421Z,985.39
2018-01-27T09:15:18.385Z,985.38
2018-01-27T09:16:18.338Z,985.42
2018-01-27T09:17:18.319Z,985.39
2018-01-27T09:18:18.398Z,985.43
2018-01-27T09:19:18.252Z,985.45
2018-01-27T09:20:18.240Z,985.46
2018-01-27T09:21:18.218Z,985.44
2018-01-27T09:22:18.189Z,985.44
2018-01-27T09:23:18.134Z,985.44
2018-01-27T09:24:18.218Z,985.45
2018-01-27T09:25:18.122Z,985.56
2018-01-27T09:26:18.088Z,985.52
2018-01-27T09:27:18.048Z,985.52
2018-01-27T09:28:18.027Z,985.54
2018-01-27T09:29:18.051Z,985.53
2018-01-27T09:30:18.022Z,985.57
2018-01-27T09:31:17.928Z,985.55
2018-01-27T09:32:17.903Z,985.56
2018-01-27T09:33:17.869Z,985.56
2018-01-27T09:34:17.885Z,985.63
2018-01-27T09:35:17.811Z,985.63
2018-01-27T09:36:17.785Z,985.68
2018-01-27T09:37:17.797Z,985.62
2018-01-27T09:38:17.726Z,985.60
2018-01-27T09:39:17.831Z,985.59
2018-01-27T09:40:17.673Z,985.61
2018-01-27T09:41:17.657Z,985.59
2018-01-27T09:42:17.621Z,985.61
2018-01-27T09:43:17.599Z,985.63
2018-01-27T09:44:17.666Z,985.64
2018-01-27T09:45:17.534Z,985.65
2018-01-27T09:46:17.554Z,985.65
2018-01-27T09:47:17.488Z,985.67
2018-01-27T09:48:17.443Z,985.71
2018-01-27T09:49:17.461Z,985.65
2018-01-27T09:50:17.504Z,985.65
2018-01-27T09:51:17.381Z,985.66
2018-01-27T09:52:17.341Z,985.62
2018-01-27T09:53:17.318Z,985.69
2018-01-27T09:54:17.276Z,985.69
2018-01-27T09:55:17.294Z,985.72
2018-01-27T09:56:17.289Z,985.75
2018-01-27T09:57:17.193Z,985.74
2018-01-27T09:58:17.178Z,985.77
2018-01-27T09:59:17.150Z,985.76
2018-01-27T10:00:17.111Z,985.77
2018-01-27T10:01:17.178Z,985.74
2018-01-27T10:02:17.075Z,985.78
2018-01-27T10:03:17.043Z,985.77
2018-01-27T10:04:17.029Z,985.75
2018-01-27T10:05:16.986Z,985.76
2018-01-27T10:06:17.061Z,985.76
2018-01-27T10:07:16.912Z,985.75
2018-01-27T10:08:16.925Z,985.81
2018-01-27T10:09:16.854Z,985.79
2018-01-27T10:10:16.869Z,985.75
2018-01-27T10:11:16.909Z,985.78
2018-01-27T10:12:16.782Z,985.77
2018-01-27T10:13:16.765Z,985.79
2018-01-27T10:14:16.737Z,985.78
2018-01-27T10:15:16.710Z,985.76
2018-01-27T10:16:16.775Z,985.79
2018-01-27T10:17:16.675Z,985.79
2018-01-27T10:18:16.603Z,985.78
2018-01-27T10:19:16.595Z,985.78
2018-01-27T10:20:16.596Z,985.79
2018-01-27T10:21:16.638Z,985.75
2018-01-27T10:22:16.533Z,985.71
2018-01-27T10:23:16.482Z,985.72
2018-01-27T10:24:16.477Z,985.70
2018-01-27T10:25:16.419Z,985.73
2018-01-27T10:26:16.401Z,985.73
2018-01-27T10:27:16.529Z,985.74
2018-01-27T10:28:16.352Z,985.73
2018-01-27T10:29:16.355Z,985.74
2018-01-27T10:30:16.285Z,985.77
2018-01-27T10:31:16.247Z,985.77
2018-01-27T10:32:16.324Z,985.77
2018-01-27T10:33:16.190Z,985.75
2018-01-27T10:34:16.160Z,985.77
2018-01-27T10:35:16.147Z,985.78
2018-01-27T10:36:16.104Z,985.78
2018-01-27T10:37:16.178Z,985.79
2018-01-27T10:38:16.039Z,985.76
2018-01-27T10:39:16.029Z,985.78
2018-01-27T10:40:15.973Z,985.74
2018-01-27T10:41:15.981Z,985.73
2018-01-27T10:42:16.248Z,985.73
2018-01-27T10:43:15.921Z,985.73
2018-01-27T10:44:15.861Z,985.72
2018-01-27T10:45:16.380Z,985.75
2018-01-27T10:46:15.833Z,985.74
2018-01-27T10:47:15.925Z,985.72
2018-01-27T10:48:15.766Z,985.77
2018-01-27T10:49:15.740Z,985.79
2018-01-27T10:50:15.931Z,985.83
2018-01-27T10:51:15.696Z,985.83
2018-01-27T10:52:15.748Z,985.84
2018-01-27T10:53:16.180Z,985.82
2018-01-27T10:54:15.637Z,985.83
2018-01-27T10:55:15.575Z,985.84
2018-01-27T10:56:15.549Z,985.90
2018-01-27T10:57:15.543Z,985.92
2018-01-27T10:58:17.018Z,985.95
2018-01-27T10:59:15.465Z,985.91
2018-01-27T11:00:15.442Z,985.93
2018-01-27T11:01:15.415Z,985.99
2018-01-27T11:02:15.382Z,985.95
2018-01-27T11:03:15.377Z,985.97
2018-01-27T11:04:15.412Z,985.93
2018-01-27T11:05:15.310Z,985.94
2018-01-27T11:06:15.286Z,985.93
2018-01-27T11:07:15.249Z,985.92
2018-01-27T11:08:15.202Z,985.93
2018-01-27T11:09:15.281Z,985.98
2018-01-27T11:10:15.150Z,985.99
2018-01-27T11:11:15.129Z,986.04
2018-01-27T11:12:15.086Z,986.06
2018-01-27T11:13:15.074Z,986.07
2018-01-27T11:14:15.141Z,986.06
2018-01-27T11:15:15.015Z,986.07
2018-01-27T11:16:14.973Z,986.04
2018-01-27T11:17:15.003Z,986.03
2018-01-27T11:18:14.931Z,986.03
2018-01-27T11:19:15.001Z,986.05
2018-01-27T11:20:14.892Z,986.07
2018-01-27T11:21:14.866Z,986.08
2018-01-27T11:22:14.806Z,986.05
2018-01-27T11:23:14.817Z,986.05
2018-01-27T11:24:15.442Z,986.05
2018-01-27T11:25:14.750Z,986.01
2018-01-27T11:26:14.720Z,986.02
2018-01-27T11:27:14.661Z,986.01
2018-01-27T11:28:14.714Z,986.01
2018-01-27T11:29:14.616Z,986.01
2018-01-27T11:30:15.228Z,986.01
2018-01-27T11:31:14.563Z,986.03
2018-01-27T11:32:14.540Z,986.06
2018-01-27T11:33:14.485Z,986.04
2018-01-27T11:34:14.477Z,986.09
2018-01-27T11:35:14.453Z,986.09
2018-01-27T11:36:14.622Z,986.06
2018-01-27T11:37:14.382Z,986.07
2018-01-27T11:38:14.362Z,986.09
2018-01-27T11:39:14.324Z,986.08
2018-01-27T11:40:14.307Z,986.09
2018-01-27T11:41:14.283Z,986.12
2018-01-27T11:42:14.311Z,986.11
2018-01-27T11:43:14.806Z,986.09
2018-01-27T11:44:14.210Z,986.11
2018-01-27T11:45:14.204Z,986.12
2018-01-27T11:46:14.152Z,986.12
2018-01-27T11:47:14.159Z,986.15
2018-01-27T11:48:14.090Z,986.15
2018-01-27T11:49:14.053Z,986.15
2018-01-27T11:50:14.411Z,986.15
2018-01-27T11:51:13.989Z,986.17
2018-01-27T11:52:14.058Z,986.23
2018-01-27T11:53:13.986Z,986.18
2018-01-27T11:54:14.479Z,986.19
2018-01-27T11:55:13.933Z,986.19
2018-01-27T11:56:13.925Z,986.20
2018-01-27T11:57:13.865Z,986.23
2018-01-27T11:58:14.323Z,986.27
2018-01-27T11:59:13.855Z,986.26
2018-01-27T12:00:13.754Z,986.29
2018-01-27T12:01:14.006Z,986.33
2018-01-27T12:02:13.857Z,986.32
2018-01-27T12:03:13.653Z,986.33
2018-01-27T12:04:13.641Z,986.33
2018-01-27T12:05:13.613Z,986.35
2018-01-27T12:06:13.568Z,986.33
2018-01-27T12:07:13.625Z,986.31
2018-01-27T12:08:14.114Z,986.32
2018-01-27T12:09:13.495Z,986.37
2018-01-27T12:10:13.517Z,986.40
2018-01-27T12:11:13.437Z,986.41
2018-01-27T12:12:13.419Z,986.37
2018-01-27T12:13:13.414Z,986.41
2018-01-27T12:14:13.973Z,986.40
2018-01-27T12:15:13.316Z,986.40
2018-01-27T12:16:13.313Z,986.39
2018-01-27T12:17:13.262Z,986.40
2018-01-27T12:18:13.587Z,986.44
2018-01-27T12:19:14.288Z,986.48
2018-01-27T12:20:13.329Z,986.47
2018-01-27T12:21:13.181Z,986.48
2018-01-27T12:22:13.116Z,986.53
2018-01-27T12:23:13.299Z,986.56
2018-01-27T12:24:13.628Z,986.57
2018-01-27T12:25:13.175Z,986.58
2018-01-27T12:26:13.018Z,986.61
2018-01-27T12:27:12.992Z,986.61
2018-01-27T12:28:13.043Z,986.63